createdAt,value
2023-05-22T00:00:52.883Z,100.00
2023-05-22T00:03:24.539Z,100.00
2023-05-22T00:05:53.299Z,100.00
2023-05-22T00:08:21.128Z,100.00
2023-05-22T00:10:48.819Z,100.00
2023-05-22T00:13:16.801Z,100.00
2023-05-22T00:15:44.533Z,100.00
2023-05-22T00:18:13.587Z,100.00
2023-05-22T00:20:42.785Z,100.00
2023-05-22T00:23:12.586Z,100.00
2023-05-22T00:25:41.703Z,100.00
2023-05-22T00:28:09.836Z,100.00
2023-05-22T00:30:38.010Z,100.00
2023-05-22T00:33:06.378Z,100.00
2023-05-22T00:35:34.398Z,100.00
2023-05-22T00:38:03.951Z,100.00
2023-05-22T00:40:31.770Z,100.00
2023-05-22T00:42:59.531Z,100.00
2023-05-22T00:45:28.546Z,100.00
2023-05-22T00:47:56.631Z,100.00
2023-05-22T00:50:24.596Z,100.00
2023-05-22T00:52:52.347Z,100.00
2023-05-22T00:55:21.525Z,100.00
2023-05-22T00:57:50.000Z,100.00
2023-05-22T01:00:18.223Z,100.00
2023-05-22T01:02:46.486Z,100.00
2023-05-22T01:05:18.398Z,100.00
2023-05-22T01:07:46.684Z,100.00
2023-05-22T01:10:17.685Z,100.00
2023-05-22T01:12:48.948Z,100.00
2023-05-22T01:15:20.119Z,100.00
2023-05-22T01:17:48.548Z,100.00
2023-05-22T01:20:18.402Z,100.00
2023-05-22T01:22:58.476Z,100.00
2023-05-22T01:25:34.621Z,100.00
2023-05-22T01:28:07.427Z,100.00
2023-05-22T01:30:41.074Z,100.00
2023-05-22T01:33:09.163Z,100.00
2023-05-22T01:35:37.054Z,100.00
2023-05-22T01:38:04.944Z,100.00
2023-05-22T01:40:32.725Z,100.00
2023-05-22T01:43:00.604Z,100.00
2023-05-22T01:45:28.422Z,100.00
2023-05-22T01:47:57.593Z,100.00
2023-05-22T01:50:26.659Z,100.00
2023-05-22T01:52:55.332Z,100.00
2023-05-22T01:55:27.570Z,100.00
2023-05-22T01:57:57.175Z,100.00
2023-05-22T02:00:25.148Z,100.00
2023-05-22T02:02:54.870Z,100.00
2023-05-22T02:05:24.410Z,100.00
2023-05-22T02:07:52.192Z,100.00
2023-05-22T02:10:19.986Z,100.00
2023-05-22T02:12:47.732Z,100.00
2023-05-22T02:15:16.377Z,100.00
2023-05-22T02:17:45.587Z,100.00
2023-05-22T02:20:15.673Z,100.00
2023-05-22T02:22:47.899Z,100.00
2023-05-22T02:25:17.285Z,100.00
2023-05-22T02:27:46.767Z,100.00
2023-05-22T02:30:15.409Z,100.00
2023-05-22T02:32:45.172Z,100.00
2023-05-22T02:35:13.116Z,100.00
2023-05-22T02:37:41.170Z,100.00
2023-05-22T02:40:11.753Z,100.00
2023-05-22T02:42:40.210Z,100.00
2023-05-22T02:45:08.874Z,100.00
2023-05-22T02:47:37.312Z,100.00
2023-05-22T02:50:05.311Z,100.00
2023-05-22T02:52:35.250Z,100.00
2023-05-22T02:55:03.066Z,100.00
2023-05-22T02:57:32.213Z,100.00
2023-05-22T03:00:01.606Z,100.00
2023-05-22T03:02:30.195Z,100.00
2023-05-22T03:04:59.659Z,100.00
2023-05-22T03:07:29.726Z,100.00
2023-05-22T03:09:57.830Z,100.00
2023-05-22T03:12:25.628Z,100.00
2023-05-22T03:14:55.089Z,100.00
2023-05-22T03:17:23.271Z,100.00
2023-05-22T03:19:51.379Z,100.00
2023-05-22T03:22:19.571Z,100.00
2023-05-22T03:24:47.478Z,100.00
2023-05-22T03:27:16.139Z,100.00
2023-05-22T03:29:44.511Z,100.00
2023-05-22T03:32:13.885Z,100.00
2023-05-22T03:34:41.905Z,100.00
2023-05-22T03:37:11.502Z,100.00
2023-05-22T03:39:39.684Z,100.00
2023-05-22T03:42:22.765Z,100.00
2023-05-22T03:44:50.672Z,100.00
2023-05-22T03:47:20.994Z,100.00
2023-05-22T03:49:48.796Z,100.00
2023-05-22T03:52:16.895Z,100.00
2023-05-22T03:54:44.697Z,100.00
2023-05-22T03:57:12.478Z,100.00
2023-05-22T03:59:40.325Z,100.00
2023-05-22T04:02:08.105Z,100.00
2023-05-22T04:04:38.673Z,100.00
2023-05-22T04:07:08.465Z,100.00
2023-05-22T04:09:36.642Z,100.00
2023-05-22T04:12:04.755Z,100.00
2023-05-22T04:14:32.776Z,100.00
2023-05-22T04:17:00.562Z,100.00
2023-05-22T04:19:30.289Z,100.00
2023-05-22T04:22:02.698Z,100.00
2023-05-22T04:24:30.517Z,100.00
2023-05-22T04:27:03.575Z,100.00
2023-05-22T04:29:31.337Z,100.00
2023-05-22T04:32:00.341Z,100.00
2023-05-22T04:34:30.264Z,100.00
2023-05-22T04:37:00.219Z,100.00
2023-05-22T04:39:29.429Z,100.00
2023-05-22T04:42:05.785Z,100.00
2023-05-22T04:44:34.358Z,100.00
2023-05-22T04:47:02.371Z,100.00
2023-05-22T04:49:30.314Z,100.00
2023-05-22T04:51:58.523Z,100.00
2023-05-22T04:54:30.544Z,100.00
2023-05-22T04:57:05.702Z,100.00
2023-05-22T04:59:33.597Z,100.00
2023-05-22T05:02:02.352Z,100.00
2023-05-22T05:04:30.810Z,100.00
2023-05-22T05:07:02.349Z,100.00
2023-05-22T05:09:32.942Z,100.00
2023-05-22T05:12:01.938Z,100.00
2023-05-22T05:14:33.719Z,100.00
2023-05-22T05:17:02.905Z,100.00
2023-05-22T05:19:30.792Z,100.00
2023-05-22T05:21:58.586Z,100.00
2023-05-22T05:24:26.342Z,100.00
2023-05-22T05:26:55.825Z,100.00
2023-05-22T05:29:23.590Z,100.00
2023-05-22T05:32:05.984Z,100.00
2023-05-22T05:34:47.193Z,100.00
2023-05-22T05:37:37.932Z,100.00
2023-05-22T05:40:07.898Z,100.00
2023-05-22T05:42:38.746Z,100.00
2023-05-22T05:45:09.813Z,100.00
2023-05-22T05:47:37.747Z,100.00
2023-05-22T05:50:06.368Z,100.00
2023-05-22T05:52:35.561Z,100.00
2023-05-22T05:55:09.596Z,100.00
2023-05-22T05:57:38.802Z,100.00
2023-05-22T06:00:11.497Z,100.00
2023-05-22T06:02:41.962Z,100.00
2023-05-22T06:05:23.222Z,100.00
2023-05-22T06:07:58.254Z,100.00
2023-05-22T06:10:26.461Z,100.00
2023-05-22T06:13:13.475Z,100.00
2023-05-22T06:15:41.690Z,100.00
2023-05-22T06:18:18.912Z,100.00
2023-05-22T06:20:47.480Z,100.00
2023-05-22T06:23:15.235Z,100.00
2023-05-22T06:25:43.629Z,100.00
2023-05-22T06:28:12.952Z,100.00
2023-05-22T06:30:40.731Z,100.00
2023-05-22T06:33:14.669Z,100.00
2023-05-22T06:35:43.350Z,100.00
2023-05-22T06:38:11.294Z,100.00
2023-05-22T06:40:48.689Z,100.00
2023-05-22T06:43:26.633Z,100.00
2023-05-22T06:46:13.179Z,100.00
2023-05-22T06:48:52.204Z,100.00
2023-05-22T06:51:27.597Z,100.00
2023-05-22T06:54:07.190Z,100.00
2023-05-22T06:56:37.098Z,100.00
2023-05-22T06:59:09.330Z,100.00
2023-05-22T07:01:55.875Z,100.00
2023-05-22T07:04:46.483Z,100.00
2023-05-22T07:07:19.440Z,100.00
2023-05-22T07:09:47.630Z,100.00
2023-05-22T07:12:16.293Z,100.00
2023-05-22T07:14:46.742Z,100.00
2023-05-22T07:17:14.639Z,100.00
2023-05-22T07:19:45.583Z,100.00
2023-05-22T07:22:13.334Z,100.00
2023-05-22T07:24:45.107Z,100.00
2023-05-22T07:27:12.919Z,100.00
2023-05-22T07:29:42.041Z,100.00
2023-05-22T07:32:11.521Z,100.00
2023-05-22T07:34:39.681Z,100.00
2023-05-22T07:37:09.146Z,100.00
2023-05-22T07:39:37.240Z,100.00
2023-05-22T07:42:06.981Z,100.00
2023-05-22T07:44:40.881Z,100.00
2023-05-22T07:47:09.095Z,100.00
2023-05-22T07:49:38.525Z,100.00
2023-05-22T07:52:07.477Z,100.00
2023-05-22T07:54:35.484Z,100.00
2023-05-22T07:57:03.819Z,100.00
2023-05-22T07:59:37.820Z,100.00
2023-05-22T08:02:05.801Z,100.00
2023-05-22T08:04:33.813Z,100.00
2023-05-22T08:07:03.397Z,100.00
2023-05-22T08:09:31.236Z,99.93
2023-05-22T08:11:59.082Z,99.77
2023-05-22T08:14:26.978Z,97.25
2023-05-22T08:16:55.005Z,94.35
2023-05-22T08:19:23.313Z,95.68
2023-05-22T08:21:52.978Z,87.08
2023-05-22T08:24:22.620Z,87.62
2023-05-22T08:26:50.675Z,87.51
2023-05-22T08:29:18.920Z,90.60
2023-05-22T08:31:46.909Z,85.95
2023-05-22T08:34:14.942Z,87.80
2023-05-22T08:36:42.893Z,90.03
2023-05-22T08:39:14.518Z,86.43
2023-05-22T08:41:47.756Z,90.69
2023-05-22T08:44:15.707Z,93.08
2023-05-22T08:46:44.334Z,90.62
2023-05-22T08:49:12.382Z,90.77
2023-05-22T08:51:40.414Z,86.98
2023-05-22T08:54:08.486Z,89.13
2023-05-22T08:56:39.879Z,88.67
2023-05-22T08:59:15.187Z,87.90
2023-05-22T09:01:44.460Z,84.01
2023-05-22T09:04:12.453Z,81.72
2023-05-22T09:06:40.487Z,84.17
2023-05-22T09:09:08.329Z,78.97
2023-05-22T09:11:36.759Z,82.40
2023-05-22T09:14:07.987Z,75.38
2023-05-22T09:16:37.169Z,75.36
2023-05-22T09:19:05.030Z,76.88
2023-05-22T09:21:32.956Z,73.95
2023-05-22T09:24:01.181Z,70.84
2023-05-22T09:26:29.058Z,72.20
2023-05-22T09:28:57.147Z,69.32
2023-05-22T09:31:24.868Z,66.68
2023-05-22T09:33:53.960Z,70.47
2023-05-22T09:36:22.233Z,68.09
2023-05-22T09:38:50.316Z,67.98
2023-05-22T09:41:22.286Z,68.52
2023-05-22T09:43:50.884Z,67.20
2023-05-22T09:46:18.902Z,67.15
2023-05-22T09:48:47.380Z,64.87
2023-05-22T09:51:16.675Z,62.95
2023-05-22T09:53:44.926Z,65.33
2023-05-22T09:56:15.981Z,66.70
2023-05-22T09:58:47.764Z,67.20
2023-05-22T10:01:17.143Z,69.09
2023-05-22T10:03:47.287Z,66.42
2023-05-22T10:06:20.518Z,66.53
2023-05-22T10:08:55.773Z,67.04
2023-05-22T10:11:23.831Z,62.52
2023-05-22T10:13:54.789Z,62.78
2023-05-22T10:16:22.626Z,61.12
2023-05-22T10:18:50.879Z,56.86
2023-05-22T10:21:22.844Z,60.61
2023-05-22T10:23:51.924Z,61.50
2023-05-22T10:26:19.936Z,58.11
2023-05-22T10:28:51.511Z,59.85
2023-05-22T10:31:20.086Z,59.87
2023-05-22T10:34:07.501Z,56.50
2023-05-22T10:36:43.628Z,53.35
2023-05-22T10:39:14.789Z,57.27
2023-05-22T10:41:42.718Z,56.02
2023-05-22T10:44:10.525Z,59.36
2023-05-22T10:46:39.555Z,57.52
2023-05-22T10:49:07.539Z,55.09
2023-05-22T10:51:35.508Z,56.69
2023-05-22T10:54:06.449Z,54.78
2023-05-22T10:56:37.012Z,56.80
2023-05-22T10:59:07.372Z,60.09
2023-05-22T11:01:38.190Z,53.71
2023-05-22T11:04:16.065Z,54.05
2023-05-22T11:06:48.983Z,58.23
2023-05-22T11:09:29.634Z,58.09
2023-05-22T11:12:21.002Z,57.53
2023-05-22T11:14:57.728Z,55.44
2023-05-22T11:17:29.457Z,52.96
2023-05-22T11:20:05.928Z,50.38
2023-05-22T11:22:36.062Z,50.79
2023-05-22T11:25:09.687Z,54.12
2023-05-22T11:27:37.626Z,57.47
2023-05-22T11:30:05.776Z,57.56
2023-05-22T11:32:33.588Z,58.04
2023-05-22T11:35:01.554Z,57.76
2023-05-22T11:37:29.355Z,54.67
2023-05-22T11:39:57.741Z,52.73
2023-05-22T11:42:27.157Z,58.16
2023-05-22T11:44:54.895Z,55.78
2023-05-22T11:47:22.884Z,53.96
2023-05-22T11:49:50.748Z,56.08
2023-05-22T11:52:18.470Z,59.79
2023-05-22T11:54:46.548Z,56.85
2023-05-22T11:57:14.508Z,62.69
2023-05-22T11:59:44.492Z,64.03
2023-05-22T12:02:12.628Z,63.72
2023-05-22T12:04:40.499Z,66.27
2023-05-22T12:07:08.579Z,69.64
2023-05-22T12:09:38.788Z,68.91
2023-05-22T12:12:09.092Z,69.11
2023-05-22T12:14:38.086Z,72.09
2023-05-22T12:17:09.596Z,71.49
2023-05-22T12:19:43.695Z,67.06
2023-05-22T12:22:12.598Z,69.92
2023-05-22T12:24:44.253Z,67.56
2023-05-22T12:27:12.474Z,66.67
2023-05-22T12:29:42.531Z,66.06
2023-05-22T12:32:12.503Z,66.61
2023-05-22T12:34:44.204Z,65.04
2023-05-22T12:37:31.197Z,64.04
2023-05-22T12:40:00.392Z,66.42
2023-05-22T12:42:28.364Z,64.87
2023-05-22T12:44:57.225Z,63.55
2023-05-22T12:47:26.625Z,63.02
2023-05-22T12:50:13.812Z,63.45
2023-05-22T12:52:41.860Z,63.72
2023-05-22T12:55:11.107Z,63.40
2023-05-22T12:57:38.885Z,64.37
2023-05-22T13:00:07.552Z,65.18
2023-05-22T13:02:36.878Z,65.66
2023-05-22T13:05:05.056Z,61.41
2023-05-22T13:07:33.030Z,58.95
2023-05-22T13:10:00.913Z,58.34
2023-05-22T13:12:28.848Z,58.29
2023-05-22T13:14:56.799Z,63.03
2023-05-22T13:17:24.664Z,62.28
2023-05-22T13:19:54.031Z,60.58
2023-05-22T13:22:26.775Z,60.79
2023-05-22T13:24:56.364Z,60.89
2023-05-22T13:27:24.837Z,60.33
2023-05-22T13:29:52.745Z,56.52
2023-05-22T13:32:21.810Z,56.51
2023-05-22T13:34:50.784Z,57.92
2023-05-22T13:37:20.041Z,66.64
2023-05-22T13:39:47.991Z,61.03
2023-05-22T13:42:15.860Z,60.86
2023-05-22T13:44:43.670Z,64.79
2023-05-22T13:47:12.006Z,64.37
2023-05-22T13:49:40.040Z,60.36
2023-05-22T13:52:07.996Z,60.41
2023-05-22T13:54:37.328Z,60.90
2023-05-22T13:57:05.242Z,56.83
2023-05-22T13:59:33.343Z,59.43
2023-05-22T14:02:01.359Z,55.52
2023-05-22T14:04:29.315Z,59.88
2023-05-22T14:06:57.311Z,62.39
2023-05-22T14:09:25.060Z,62.62
2023-05-22T14:11:54.292Z,64.11
2023-05-22T14:14:28.159Z,59.69
2023-05-22T14:16:56.164Z,61.96
2023-05-22T14:19:24.643Z,58.34
2023-05-22T14:21:52.640Z,63.93
2023-05-22T14:24:20.494Z,62.27
2023-05-22T14:26:51.675Z,61.76
2023-05-22T14:29:23.244Z,57.92
2023-05-22T14:31:52.002Z,60.74
2023-05-22T14:34:20.256Z,60.10
2023-05-22T14:36:48.409Z,60.74
2023-05-22T14:39:16.407Z,60.07
2023-05-22T14:41:47.181Z,59.00
2023-05-22T14:44:17.401Z,58.42
2023-05-22T14:46:47.780Z,55.70
2023-05-22T14:49:15.617Z,54.72
2023-05-22T14:51:47.658Z,55.60
2023-05-22T14:54:17.688Z,54.79
2023-05-22T14:56:45.712Z,54.83
2023-05-22T14:59:15.919Z,56.24
2023-05-22T15:01:52.455Z,56.49
2023-05-22T15:04:20.720Z,53.10
2023-05-22T15:06:50.805Z,53.48
2023-05-22T15:09:18.766Z,52.71
2023-05-22T15:11:49.295Z,53.08
2023-05-22T15:14:21.597Z,52.38
2023-05-22T15:16:51.044Z,54.50
2023-05-22T15:19:18.889Z,56.81
2023-05-22T15:21:46.769Z,55.39
2023-05-22T15:24:14.628Z,54.73
2023-05-22T15:26:42.425Z,53.79
2023-05-22T15:29:10.276Z,55.79
2023-05-22T15:31:38.117Z,54.64
2023-05-22T15:34:07.272Z,52.53
2023-05-22T15:36:36.538Z,53.83
2023-05-22T15:39:04.431Z,53.40
2023-05-22T15:41:32.407Z,53.81
2023-05-22T15:44:00.256Z,58.79
2023-05-22T15:46:30.796Z,59.10
2023-05-22T15:49:02.931Z,58.54
2023-05-22T15:51:33.085Z,55.92
2023-05-22T15:54:00.861Z,58.04
2023-05-22T15:56:29.334Z,63.77
2023-05-22T15:58:57.375Z,60.92
2023-05-22T16:01:25.164Z,60.13
2023-05-22T16:03:53.032Z,62.47
2023-05-22T16:06:23.155Z,61.44
2023-05-22T16:08:52.312Z,63.33
2023-05-22T16:11:20.102Z,61.21
2023-05-22T16:13:48.055Z,62.06
2023-05-22T16:16:17.394Z,60.04
2023-05-22T16:18:45.232Z,62.89
2023-05-22T16:21:13.065Z,61.53
2023-05-22T16:23:42.982Z,54.04
2023-05-22T16:26:12.152Z,59.83
2023-05-22T16:28:39.967Z,56.23
2023-05-22T16:31:08.087Z,56.22
2023-05-22T16:33:37.622Z,57.81
2023-05-22T16:36:05.880Z,60.32
2023-05-22T16:38:33.730Z,57.85
2023-05-22T16:41:04.902Z,56.79
2023-05-22T16:43:38.305Z,60.62
2023-05-22T16:46:11.571Z,57.08
2023-05-22T16:48:39.453Z,53.65
2023-05-22T16:51:07.280Z,56.36
2023-05-22T16:53:38.654Z,56.12
2023-05-22T16:56:08.882Z,57.08
2023-05-22T16:58:38.162Z,58.56
2023-05-22T17:01:06.754Z,58.89
2023-05-22T17:03:34.825Z,59.08
2023-05-22T17:06:03.605Z,60.90
2023-05-22T17:08:33.400Z,59.49
2023-05-22T17:11:01.297Z,61.56
2023-05-22T17:13:29.300Z,62.18
2023-05-22T17:16:01.097Z,61.97
2023-05-22T17:18:30.498Z,60.43
2023-05-22T17:21:00.339Z,61.78
2023-05-22T17:23:28.009Z,62.18
2023-05-22T17:25:56.161Z,67.15
2023-05-22T17:28:24.065Z,67.72
2023-05-22T17:30:52.158Z,68.06
2023-05-22T17:33:21.441Z,70.43
2023-05-22T17:35:49.374Z,72.58
2023-05-22T17:38:21.954Z,75.50
2023-05-22T17:40:50.798Z,78.02
2023-05-22T17:43:19.247Z,75.54
2023-05-22T17:45:50.133Z,71.93
2023-05-22T17:48:21.682Z,69.39
2023-05-22T17:50:52.079Z,68.75
2023-05-22T17:53:20.846Z,70.62
2023-05-22T17:55:53.233Z,73.99
2023-05-22T17:58:25.885Z,76.11
2023-05-22T18:00:56.423Z,77.52
2023-05-22T18:03:26.766Z,78.00
2023-05-22T18:05:56.685Z,80.01
2023-05-22T18:08:24.710Z,82.45
2023-05-22T18:10:58.382Z,84.89
2023-05-22T18:13:29.225Z,89.75
2023-05-22T18:16:00.617Z,97.09
2023-05-22T18:18:35.038Z,100.00
2023-05-22T18:21:06.805Z,96.07
2023-05-22T18:23:35.136Z,96.78
2023-05-22T18:26:03.637Z,96.01
2023-05-22T18:28:34.230Z,92.50
2023-05-22T18:31:04.807Z,92.76
2023-05-22T18:33:37.518Z,93.72
2023-05-22T18:36:14.107Z,95.59
2023-05-22T18:38:42.489Z,98.73
2023-05-22T18:41:16.678Z,100.00
2023-05-22T18:43:44.549Z,100.00
2023-05-22T18:49:29.879Z,86.56
2023-05-22T18:51:59.264Z,85.49
2023-05-22T18:54:44.483Z,87.92
2023-05-22T18:57:18.940Z,89.22
2023-05-22T18:59:53.337Z,92.95
2023-05-22T19:02:49.423Z,98.19
2023-05-22T19:05:42.319Z,100.00
2023-05-22T19:08:57.354Z,100.00
2023-05-22T19:12:01.806Z,100.00
2023-05-22T19:20:20.910Z,100.00
2023-05-22T19:22:48.756Z,100.00
2023-05-22T19:25:16.568Z,100.00
2023-05-22T19:27:45.264Z,100.00
2023-05-22T19:30:16.958Z,100.00
2023-05-22T19:32:44.637Z,100.00
2023-05-22T19:35:12.471Z,100.00
2023-05-22T19:37:41.893Z,100.00
2023-05-22T19:40:11.196Z,100.00
2023-05-22T19:42:40.937Z,100.00
2023-05-22T19:45:09.200Z,100.00
2023-05-22T19:47:44.395Z,100.00
2023-05-22T19:50:14.725Z,100.00
2023-05-22T19:52:45.982Z,100.00
2023-05-22T19:55:16.172Z,100.00
2023-05-22T19:57:47.535Z,100.00
2023-05-22T20:00:16.953Z,100.00
2023-05-22T20:02:47.940Z,100.00
2023-05-22T20:05:15.908Z,100.00
2023-05-22T20:07:47.190Z,100.00
2023-05-22T20:10:14.836Z,100.00
2023-05-22T20:12:42.454Z,100.00
2023-05-22T20:15:16.107Z,100.00
2023-05-22T20:21:02.462Z,100.00
2023-05-22T20:23:32.161Z,100.00
2023-05-22T20:26:00.496Z,100.00
2023-05-22T20:28:31.046Z,100.00
2023-05-22T20:31:06.216Z,100.00
2023-05-22T20:33:35.067Z,100.00
2023-05-22T20:36:03.343Z,100.00
2023-05-22T20:38:39.490Z,100.00
2023-05-22T20:41:09.830Z,100.00
2023-05-22T20:43:43.412Z,100.00
2023-05-22T20:46:16.213Z,100.00
2023-05-22T20:48:49.644Z,100.00
2023-05-22T20:51:18.716Z,100.00
2023-05-22T20:53:53.523Z,100.00
2023-05-22T20:56:24.548Z,100.00
2023-05-22T20:59:00.242Z,100.00
2023-05-22T21:01:28.731Z,100.00
2023-05-22T21:03:59.420Z,100.00
2023-05-22T21:06:27.757Z,100.00
2023-05-22T21:08:59.914Z,100.00
2023-05-22T21:11:28.995Z,100.00
2023-05-22T21:13:56.771Z,100.00
2023-05-22T21:16:25.242Z,100.00
2023-05-22T21:18:54.851Z,100.00
2023-05-22T21:21:25.474Z,100.00
2023-05-22T21:23:53.249Z,100.00
2023-05-22T21:26:23.155Z,100.00
2023-05-22T21:28:50.975Z,100.00
2023-05-22T21:31:18.557Z,100.00
2023-05-22T21:33:46.367Z,100.00
2023-05-22T21:36:14.018Z,100.00
2023-05-22T21:38:47.566Z,100.00
2023-05-22T21:41:15.926Z,100.00
2023-05-22T21:43:47.925Z,100.00
2023-05-22T21:46:15.692Z,100.00
2023-05-22T21:48:43.327Z,100.00
2023-05-22T21:51:10.923Z,100.00
2023-05-22T21:53:39.594Z,100.00
2023-05-22T21:56:07.449Z,100.00
2023-05-22T21:58:35.045Z,100.00
2023-05-22T22:01:04.125Z,100.00
2023-05-22T22:03:31.739Z,100.00
2023-05-22T22:05:59.638Z,100.00
2023-05-22T22:08:28.326Z,100.00
2023-05-22T22:10:56.093Z,100.00
2023-05-22T22:13:23.689Z,100.00
2023-05-22T22:15:51.375Z,100.00
2023-05-22T22:18:20.523Z,100.00
2023-05-22T22:20:50.412Z,100.00
2023-05-22T22:23:18.178Z,100.00
2023-05-22T22:25:45.899Z,100.00
2023-05-22T22:28:13.485Z,100.00
2023-05-22T22:30:41.247Z,100.00
2023-05-22T22:33:09.200Z,100.00
2023-05-22T22:35:38.288Z,100.00
2023-05-22T22:38:06.017Z,100.00
2023-05-22T22:40:33.624Z,100.00
2023-05-22T22:43:01.227Z,100.00
2023-05-22T22:45:28.864Z,100.00
2023-05-22T22:47:57.260Z,100.00
2023-05-22T22:50:25.434Z,100.00
2023-05-22T22:52:54.390Z,100.00
2023-05-22T22:55:24.733Z,100.00
2023-05-22T22:57:53.499Z,100.00
2023-05-22T23:00:21.146Z,100.00
2023-05-22T23:02:48.841Z,100.00
2023-05-22T23:05:19.995Z,100.00
2023-05-22T23:07:48.139Z,100.00
2023-05-22T23:10:17.075Z,100.00
2023-05-22T23:12:45.042Z,100.00
2023-05-22T23:15:13.586Z,100.00
2023-05-22T23:17:41.470Z,100.00
2023-05-22T23:20:09.900Z,100.00
2023-05-22T23:22:37.585Z,100.00
2023-05-22T23:25:05.647Z,100.00
2023-05-22T23:27:35.006Z,100.00
2023-05-22T23:30:02.592Z,100.00
2023-05-22T23:32:30.266Z,100.00
2023-05-22T23:34:57.942Z,100.00
2023-05-22T23:37:25.662Z,100.00
2023-05-22T23:39:53.349Z,100.00
2023-05-22T23:42:20.895Z,100.00
2023-05-22T23:44:50.017Z,100.00
2023-05-22T23:47:18.795Z,100.00
2023-05-22T23:49:46.447Z,100.00
2023-05-22T23:52:14.399Z,100.00
2023-05-22T23:54:42.205Z,100.00
2023-05-22T23:57:10.528Z,100.00
2023-05-22T23:59:38.198Z,100.00
